sensor_id;sensor_type;location;lat;lon;timestamp;P1;durP1;ratioP1;P2;durP2;ratioP2
54953;SDS011;40855;51.072;5.402;2023-03-01T00:01:52;12.55;;;6.97;;
54953;SDS011;40855;51.072;5.402;2023-03-01T00:04:18;10.75;;;7.00;;
54953;SDS011;40855;51.072;5.402;2023-03-01T00:06:44;10.40;;;6.72;;
54953;SDS011;40855;51.072;5.402;2023-03-01T00:09:11;8.43;;;6.13;;
54953;SDS011;40855;51.072;5.402;2023-03-01T00:11:38;13.77;;;7.00;;
54953;SDS011;40855;51.072;5.402;2023-03-01T00:14:03;9.40;;;6.22;;
54953;SDS011;40855;51.072;5.402;2023-03-01T00:16:37;9.73;;;6.72;;
54953;SDS011;40855;51.072;5.402;2023-03-01T00:19:05;10.30;;;6.72;;
54953;SDS011;40855;51.072;5.402;2023-03-01T00:21:36;10.68;;;7.15;;
54953;SDS011;40855;51.072;5.402;2023-03-01T00:24:02;16.55;;;7.72;;
54953;SDS011;40855;51.072;5.402;2023-03-01T00:26:28;13.13;;;6.47;;
54953;SDS011;40855;51.072;5.402;2023-03-01T00:28:54;11.55;;;7.10;;
54953;SDS011;40855;51.072;5.402;2023-03-01T00:31:22;13.18;;;6.45;;
54953;SDS011;40855;51.072;5.402;2023-03-01T00:33:52;10.02;;;6.30;;
54953;SDS011;40855;51.072;5.402;2023-03-01T00:36:22;8.30;;;6.85;;
54953;SDS011;40855;51.072;5.402;2023-03-01T00:38:49;12.85;;;6.70;;
54953;SDS011;40855;51.072;5.402;2023-03-01T00:41:16;9.38;;;6.55;;
54953;SDS011;40855;51.072;5.402;2023-03-01T00:43:43;8.35;;;5.45;;
54953;SDS011;40855;51.072;5.402;2023-03-01T00:46:11;10.45;;;6.97;;
54953;SDS011;40855;51.072;5.402;2023-03-01T00:48:38;10.75;;;6.63;;
54953;SDS011;40855;51.072;5.402;2023-03-01T00:51:07;9.50;;;6.40;;
54953;SDS011;40855;51.072;5.402;2023-03-01T00:53:35;10.43;;;6.88;;
54953;SDS011;40855;51.072;5.402;2023-03-01T00:56:01;13.23;;;6.82;;
54953;SDS011;40855;51.072;5.402;2023-03-01T00:58:27;11.07;;;6.97;;
54953;SDS011;40855;51.072;5.402;2023-03-01T01:00:52;13.38;;;7.50;;
54953;SDS011;40855;51.072;5.402;2023-03-01T01:03:18;10.23;;;7.75;;
54953;SDS011;40855;51.072;5.402;2023-03-01T01:05:44;9.85;;;7.03;;
54953;SDS011;40855;51.072;5.402;2023-03-01T01:08:10;9.57;;;7.05;;
54953;SDS011;40855;51.072;5.402;2023-03-01T01:10:36;9.98;;;6.97;;
54953;SDS011;40855;51.072;5.402;2023-03-01T01:13:02;13.60;;;7.70;;
54953;SDS011;40855;51.072;5.402;2023-03-01T01:15:28;15.95;;;7.55;;
54953;SDS011;40855;51.072;5.402;2023-03-01T01:17:54;11.80;;;7.55;;
54953;SDS011;40855;51.072;5.402;2023-03-01T01:20:20;10.32;;;7.22;;
54953;SDS011;40855;51.072;5.402;2023-03-01T01:22:45;12.00;;;7.60;;
54953;SDS011;40855;51.072;5.402;2023-03-01T01:25:11;9.68;;;7.10;;
54953;SDS011;40855;51.072;5.402;2023-03-01T01:27:37;12.75;;;6.82;;
54953;SDS011;40855;51.072;5.402;2023-03-01T01:30:03;10.70;;;7.25;;
54953;SDS011;40855;51.072;5.402;2023-03-01T01:32:29;10.18;;;6.97;;
54953;SDS011;40855;51.072;5.402;2023-03-01T01:34:55;13.57;;;7.70;;
54953;SDS011;40855;51.072;5.402;2023-03-01T01:37:21;15.13;;;7.55;;
54953;SDS011;40855;51.072;5.402;2023-03-01T01:39:46;8.85;;;6.70;;
54953;SDS011;40855;51.072;5.402;2023-03-01T01:42:16;12.05;;;7.75;;
54953;SDS011;40855;51.072;5.402;2023-03-01T01:44:44;10.30;;;6.55;;
54953;SDS011;40855;51.072;5.402;2023-03-01T01:47:12;13.40;;;7.43;;
54953;SDS011;40855;51.072;5.402;2023-03-01T01:49:43;9.45;;;6.97;;
54953;SDS011;40855;51.072;5.402;2023-03-01T01:52:20;8.52;;;6.55;;
54953;SDS011;40855;51.072;5.402;2023-03-01T01:54:51;11.52;;;7.75;;
54953;SDS011;40855;51.072;5.402;2023-03-01T01:57:35;9.60;;;7.07;;
54953;SDS011;40855;51.072;5.402;2023-03-01T02:00:08;11.30;;;7.80;;
54953;SDS011;40855;51.072;5.402;2023-03-01T02:02:45;13.05;;;8.02;;
54953;SDS011;40855;51.072;5.402;2023-03-01T02:05:29;13.30;;;7.35;;
54953;SDS011;40855;51.072;5.402;2023-03-01T02:08:04;12.23;;;8.00;;
54953;SDS011;40855;51.072;5.402;2023-03-01T02:10:32;11.35;;;7.43;;
54953;SDS011;40855;51.072;5.402;2023-03-01T02:13:00;12.20;;;8.02;;
54953;SDS011;40855;51.072;5.402;2023-03-01T02:15:26;9.40;;;7.18;;
54953;SDS011;40855;51.072;5.402;2023-03-01T02:17:53;9.50;;;7.20;;
54953;SDS011;40855;51.072;5.402;2023-03-01T02:22:57;11.02;;;8.07;;
54953;SDS011;40855;51.072;5.402;2023-03-01T02:30:26;11.98;;;7.72;;
54953;SDS011;40855;51.072;5.402;2023-03-01T02:32:54;11.25;;;7.63;;
54953;SDS011;40855;51.072;5.402;2023-03-01T02:35:27;10.48;;;7.80;;
54953;SDS011;40855;51.072;5.402;2023-03-01T02:37:56;16.05;;;8.48;;
54953;SDS011;40855;51.072;5.402;2023-03-01T02:40:25;14.60;;;8.32;;
54953;SDS011;40855;51.072;5.402;2023-03-01T02:42:57;11.00;;;8.10;;
54953;SDS011;40855;51.072;5.402;2023-03-01T02:45:24;14.45;;;8.55;;
54953;SDS011;40855;51.072;5.402;2023-03-01T02:47:53;14.98;;;8.40;;
54953;SDS011;40855;51.072;5.402;2023-03-01T02:55:41;12.95;;;7.40;;
54953;SDS011;40855;51.072;5.402;2023-03-01T02:58:07;13.77;;;8.00;;
54953;SDS011;40855;51.072;5.402;2023-03-01T03:00:36;12.10;;;7.97;;
54953;SDS011;40855;51.072;5.402;2023-03-01T03:03:10;13.35;;;7.72;;
54953;SDS011;40855;51.072;5.402;2023-03-01T03:05:39;14.80;;;9.25;;
54953;SDS011;40855;51.072;5.402;2023-03-01T03:08:04;10.52;;;7.78;;
54953;SDS011;40855;51.072;5.402;2023-03-01T03:10:33;14.40;;;9.20;;
54953;SDS011;40855;51.072;5.402;2023-03-01T03:13:11;11.65;;;8.90;;
54953;SDS011;40855;51.072;5.402;2023-03-01T03:15:38;14.60;;;8.48;;
54953;SDS011;40855;51.072;5.402;2023-03-01T03:18:07;12.68;;;8.55;;
54953;SDS011;40855;51.072;5.402;2023-03-01T03:20:35;18.27;;;8.95;;
54953;SDS011;40855;51.072;5.402;2023-03-01T03:23:02;10.80;;;7.93;;
54953;SDS011;40855;51.072;5.402;2023-03-01T03:25:29;12.80;;;9.20;;
54953;SDS011;40855;51.072;5.402;2023-03-01T03:27:55;11.95;;;8.35;;
54953;SDS011;40855;51.072;5.402;2023-03-01T03:30:22;16.08;;;9.30;;
54953;SDS011;40855;51.072;5.402;2023-03-01T03:32:49;12.63;;;7.82;;
54953;SDS011;40855;51.072;5.402;2023-03-01T03:35:22;13.55;;;8.80;;
54953;SDS011;40855;51.072;5.402;2023-03-01T03:37:56;13.05;;;7.93;;
54953;SDS011;40855;51.072;5.402;2023-03-01T03:40:40;12.93;;;8.40;;
54953;SDS011;40855;51.072;5.402;2023-03-01T03:43:17;12.18;;;8.50;;
54953;SDS011;40855;51.072;5.402;2023-03-01T03:45:48;13.38;;;8.38;;
54953;SDS011;40855;51.072;5.402;2023-03-01T03:48:15;12.48;;;8.82;;
54953;SDS011;40855;51.072;5.402;2023-03-01T03:50:46;12.73;;;8.82;;
54953;SDS011;40855;51.072;5.402;2023-03-01T03:53:13;14.43;;;8.55;;
54953;SDS011;40855;51.072;5.402;2023-03-01T03:55:39;16.95;;;8.82;;
54953;SDS011;40855;51.072;5.402;2023-03-01T03:58:06;14.40;;;8.27;;
54953;SDS011;40855;51.072;5.402;2023-03-01T04:00:43;11.13;;;7.47;;
54953;SDS011;40855;51.072;5.402;2023-03-01T04:03:10;16.17;;;8.27;;
54953;SDS011;40855;51.072;5.402;2023-03-01T04:05:38;15.88;;;8.73;;
54953;SDS011;40855;51.072;5.402;2023-03-01T04:08:04;12.98;;;8.63;;
54953;SDS011;40855;51.072;5.402;2023-03-01T04:10:40;14.15;;;8.68;;
54953;SDS011;40855;51.072;5.402;2023-03-01T04:13:12;12.98;;;7.70;;
54953;SDS011;40855;51.072;5.402;2023-03-01T04:15:39;12.98;;;8.68;;
54953;SDS011;40855;51.072;5.402;2023-03-01T04:18:05;13.25;;;8.82;;
54953;SDS011;40855;51.072;5.402;2023-03-01T04:20:32;14.60;;;8.23;;
54953;SDS011;40855;51.072;5.402;2023-03-01T04:23:10;12.55;;;9.10;;
54953;SDS011;40855;51.072;5.402;2023-03-01T04:25:51;14.90;;;9.18;;
54953;SDS011;40855;51.072;5.402;2023-03-01T04:28:19;14.15;;;8.07;;
54953;SDS011;40855;51.072;5.402;2023-03-01T04:30:47;12.48;;;8.43;;
54953;SDS011;40855;51.072;5.402;2023-03-01T04:33:13;13.40;;;8.10;;
54953;SDS011;40855;51.072;5.402;2023-03-01T04:35:39;17.77;;;8.85;;
54953;SDS011;40855;51.072;5.402;2023-03-01T04:38:05;15.15;;;9.02;;
54953;SDS011;40855;51.072;5.402;2023-03-01T04:40:31;15.88;;;9.25;;
54953;SDS011;40855;51.072;5.402;2023-03-01T04:42:57;16.83;;;8.57;;
54953;SDS011;40855;51.072;5.402;2023-03-01T04:45:23;14.45;;;8.80;;
54953;SDS011;40855;51.072;5.402;2023-03-01T04:47:49;14.80;;;9.95;;
54953;SDS011;40855;51.072;5.402;2023-03-01T04:50:17;13.95;;;8.60;;
54953;SDS011;40855;51.072;5.402;2023-03-01T04:52:48;16.27;;;9.77;;
54953;SDS011;40855;51.072;5.402;2023-03-01T04:55:14;12.20;;;8.25;;
54953;SDS011;40855;51.072;5.402;2023-03-01T04:57:40;20.98;;;8.98;;
54953;SDS011;40855;51.072;5.402;2023-03-01T05:00:07;20.02;;;9.90;;
54953;SDS011;40855;51.072;5.402;2023-03-01T05:02:58;15.13;;;8.55;;
54953;SDS011;40855;51.072;5.402;2023-03-01T05:05:33;15.30;;;9.23;;
54953;SDS011;40855;51.072;5.402;2023-03-01T05:08:06;17.77;;;9.10;;
54953;SDS011;40855;51.072;5.402;2023-03-01T05:10:33;15.23;;;9.27;;
54953;SDS011;40855;51.072;5.402;2023-03-01T05:13:00;12.80;;;8.50;;
54953;SDS011;40855;51.072;5.402;2023-03-01T05:15:28;12.52;;;8.48;;
54953;SDS011;40855;51.072;5.402;2023-03-01T05:17:56;14.40;;;8.75;;
54953;SDS011;40855;51.072;5.402;2023-03-01T05:20:26;13.75;;;9.18;;
54953;SDS011;40855;51.072;5.402;2023-03-01T05:22:58;13.68;;;8.75;;
54953;SDS011;40855;51.072;5.402;2023-03-01T05:25:24;15.48;;;9.07;;
54953;SDS011;40855;51.072;5.402;2023-03-01T05:27:50;14.35;;;8.88;;
54953;SDS011;40855;51.072;5.402;2023-03-01T05:30:16;13.98;;;8.55;;
54953;SDS011;40855;51.072;5.402;2023-03-01T05:32:47;16.88;;;9.63;;
54953;SDS011;40855;51.072;5.402;2023-03-01T05:35:15;14.38;;;8.98;;
54953;SDS011;40855;51.072;5.402;2023-03-01T05:37:43;15.75;;;8.50;;
54953;SDS011;40855;51.072;5.402;2023-03-01T05:40:10;20.65;;;9.82;;
54953;SDS011;40855;51.072;5.402;2023-03-01T05:42:50;14.77;;;9.00;;
54953;SDS011;40855;51.072;5.402;2023-03-01T05:45:20;16.98;;;9.27;;
54953;SDS011;40855;51.072;5.402;2023-03-01T05:47:48;19.10;;;9.05;;
54953;SDS011;40855;51.072;5.402;2023-03-01T05:50:16;15.27;;;9.77;;
54953;SDS011;40855;51.072;5.402;2023-03-01T05:52:49;17.10;;;10.02;;
54953;SDS011;40855;51.072;5.402;2023-03-01T05:55:17;19.23;;;10.52;;
54953;SDS011;40855;51.072;5.402;2023-03-01T05:57:45;15.85;;;9.50;;
54953;SDS011;40855;51.072;5.402;2023-03-01T06:00:11;17.42;;;9.38;;
54953;SDS011;40855;51.072;5.402;2023-03-01T06:02:38;15.48;;;9.52;;
54953;SDS011;40855;51.072;5.402;2023-03-01T06:05:05;14.50;;;9.00;;
54953;SDS011;40855;51.072;5.402;2023-03-01T06:07:32;17.92;;;10.43;;
54953;SDS011;40855;51.072;5.402;2023-03-01T06:09:58;17.75;;;10.15;;
54953;SDS011;40855;51.072;5.402;2023-03-01T06:12:23;16.42;;;10.57;;
54953;SDS011;40855;51.072;5.402;2023-03-01T06:14:49;16.08;;;10.23;;
54953;SDS011;40855;51.072;5.402;2023-03-01T06:17:15;14.77;;;9.73;;
54953;SDS011;40855;51.072;5.402;2023-03-01T06:19:41;17.15;;;10.15;;
54953;SDS011;40855;51.072;5.402;2023-03-01T06:22:06;19.83;;;10.05;;
54953;SDS011;40855;51.072;5.402;2023-03-01T06:24:33;16.60;;;9.73;;
54953;SDS011;40855;51.072;5.402;2023-03-01T06:26:59;16.70;;;10.00;;
54953;SDS011;40855;51.072;5.402;2023-03-01T06:29:24;15.02;;;9.55;;
54953;SDS011;40855;51.072;5.402;2023-03-01T06:31:50;18.52;;;10.48;;
54953;SDS011;40855;51.072;5.402;2023-03-01T06:34:15;17.10;;;9.75;;
54953;SDS011;40855;51.072;5.402;2023-03-01T06:36:41;18.00;;;10.88;;
54953;SDS011;40855;51.072;5.402;2023-03-01T06:39:07;21.77;;;10.88;;
54953;SDS011;40855;51.072;5.402;2023-03-01T06:41:33;31.27;;;16.15;;
54953;SDS011;40855;51.072;5.402;2023-03-01T06:43:59;32.05;;;13.77;;
54953;SDS011;40855;51.072;5.402;2023-03-01T06:46:25;117.13;;;38.10;;
54953;SDS011;40855;51.072;5.402;2023-03-01T06:48:51;150.23;;;42.97;;
54953;SDS011;40855;51.072;5.402;2023-03-01T06:51:16;205.85;;;49.65;;
54953;SDS011;40855;51.072;5.402;2023-03-01T06:53:42;258.55;;;58.58;;
54953;SDS011;40855;51.072;5.402;2023-03-01T06:56:08;431.13;;;101.03;;
54953;SDS011;40855;51.072;5.402;2023-03-01T06:58:33;406.00;;;92.63;;
54953;SDS011;40855;51.072;5.402;2023-03-01T07:00:59;348.15;;;87.80;;
54953;SDS011;40855;51.072;5.402;2023-03-01T07:03:25;112.03;;;37.05;;
54953;SDS011;40855;51.072;5.402;2023-03-01T07:05:50;59.33;;;24.85;;
54953;SDS011;40855;51.072;5.402;2023-03-01T07:08:17;21.75;;;12.52;;
54953;SDS011;40855;51.072;5.402;2023-03-01T07:10:44;19.20;;;10.57;;
54953;SDS011;40855;51.072;5.402;2023-03-01T07:13:09;26.90;;;11.43;;
54953;SDS011;40855;51.072;5.402;2023-03-01T07:15:35;17.85;;;10.70;;
54953;SDS011;40855;51.072;5.402;2023-03-01T07:18:01;18.30;;;10.40;;
54953;SDS011;40855;51.072;5.402;2023-03-01T07:20:27;23.90;;;10.38;;
54953;SDS011;40855;51.072;5.402;2023-03-01T07:22:54;20.77;;;11.15;;
54953;SDS011;40855;51.072;5.402;2023-03-01T07:25:21;19.52;;;10.85;;
54953;SDS011;40855;51.072;5.402;2023-03-01T07:27:53;19.65;;;11.35;;
54953;SDS011;40855;51.072;5.402;2023-03-01T07:30:19;17.38;;;11.30;;
54953;SDS011;40855;51.072;5.402;2023-03-01T07:32:46;19.70;;;11.20;;
54953;SDS011;40855;51.072;5.402;2023-03-01T07:35:11;18.95;;;11.13;;
54953;SDS011;40855;51.072;5.402;2023-03-01T07:37:37;20.80;;;11.85;;
54953;SDS011;40855;51.072;5.402;2023-03-01T07:40:03;18.40;;;10.60;;
54953;SDS011;40855;51.072;5.402;2023-03-01T07:42:29;18.63;;;11.57;;
54953;SDS011;40855;51.072;5.402;2023-03-01T07:44:55;20.40;;;11.95;;
54953;SDS011;40855;51.072;5.402;2023-03-01T07:47:20;23.48;;;12.63;;
54953;SDS011;40855;51.072;5.402;2023-03-01T07:49:46;17.30;;;11.13;;
54953;SDS011;40855;51.072;5.402;2023-03-01T07:52:12;23.67;;;11.75;;
54953;SDS011;40855;51.072;5.402;2023-03-01T07:54:38;20.02;;;11.48;;
54953;SDS011;40855;51.072;5.402;2023-03-01T07:57:04;21.17;;;11.45;;
54953;SDS011;40855;51.072;5.402;2023-03-01T07:59:29;29.23;;;11.23;;
54953;SDS011;40855;51.072;5.402;2023-03-01T08:01:56;19.88;;;11.93;;
54953;SDS011;40855;51.072;5.402;2023-03-01T08:04:22;16.35;;;10.77;;
54953;SDS011;40855;51.072;5.402;2023-03-01T08:06:49;21.10;;;11.63;;
54953;SDS011;40855;51.072;5.402;2023-03-01T08:09:16;22.10;;;11.65;;
54953;SDS011;40855;51.072;5.402;2023-03-01T08:11:41;24.02;;;12.48;;
54953;SDS011;40855;51.072;5.402;2023-03-01T08:14:07;19.38;;;11.70;;
54953;SDS011;40855;51.072;5.402;2023-03-01T08:16:33;21.80;;;11.73;;
54953;SDS011;40855;51.072;5.402;2023-03-01T08:19:09;26.63;;;12.25;;
54953;SDS011;40855;51.072;5.402;2023-03-01T08:21:37;20.48;;;12.13;;
54953;SDS011;40855;51.072;5.402;2023-03-01T08:24:03;22.25;;;12.55;;
54953;SDS011;40855;51.072;5.402;2023-03-01T08:26:31;20.20;;;12.07;;
54953;SDS011;40855;51.072;5.402;2023-03-01T08:28:57;32.28;;;14.73;;
54953;SDS011;40855;51.072;5.402;2023-03-01T08:31:23;84.60;;;26.77;;
54953;SDS011;40855;51.072;5.402;2023-03-01T08:33:55;47.33;;;19.30;;
54953;SDS011;40855;51.072;5.402;2023-03-01T08:36:28;28.80;;;14.40;;
54953;SDS011;40855;51.072;5.402;2023-03-01T08:38:57;28.02;;;12.38;;
54953;SDS011;40855;51.072;5.402;2023-03-01T08:41:22;30.40;;;14.48;;
54953;SDS011;40855;51.072;5.402;2023-03-01T08:43:49;55.80;;;19.23;;
54953;SDS011;40855;51.072;5.402;2023-03-01T08:46:15;26.02;;;12.98;;
54953;SDS011;40855;51.072;5.402;2023-03-01T08:48:41;26.45;;;13.88;;
54953;SDS011;40855;51.072;5.402;2023-03-01T08:51:16;38.78;;;18.00;;
54953;SDS011;40855;51.072;5.402;2023-03-01T08:53:43;19.67;;;12.00;;
54953;SDS011;40855;51.072;5.402;2023-03-01T08:56:09;32.58;;;16.15;;
54953;SDS011;40855;51.072;5.402;2023-03-01T08:58:36;23.02;;;12.32;;
54953;SDS011;40855;51.072;5.402;2023-03-01T09:01:13;23.20;;;12.43;;
54953;SDS011;40855;51.072;5.402;2023-03-01T09:03:43;20.80;;;10.80;;
54953;SDS011;40855;51.072;5.402;2023-03-01T09:06:09;23.13;;;11.93;;
54953;SDS011;40855;51.072;5.402;2023-03-01T09:08:36;21.45;;;12.48;;
54953;SDS011;40855;51.072;5.402;2023-03-01T09:11:04;21.30;;;11.77;;
54953;SDS011;40855;51.072;5.402;2023-03-01T09:13:31;17.63;;;10.90;;
54953;SDS011;40855;51.072;5.402;2023-03-01T09:15:58;20.73;;;12.00;;
54953;SDS011;40855;51.072;5.402;2023-03-01T09:18:26;22.25;;;13.20;;
54953;SDS011;40855;51.072;5.402;2023-03-01T09:20:52;22.02;;;12.45;;
54953;SDS011;40855;51.072;5.402;2023-03-01T09:23:21;18.30;;;11.82;;
54953;SDS011;40855;51.072;5.402;2023-03-01T09:25:47;23.50;;;12.98;;
54953;SDS011;40855;51.072;5.402;2023-03-01T09:28:12;22.48;;;12.80;;
54953;SDS011;40855;51.072;5.402;2023-03-01T09:30:38;25.23;;;12.73;;
54953;SDS011;40855;51.072;5.402;2023-03-01T09:33:04;23.38;;;12.30;;
54953;SDS011;40855;51.072;5.402;2023-03-01T09:35:29;22.52;;;12.45;;
54953;SDS011;40855;51.072;5.402;2023-03-01T09:37:55;19.55;;;11.85;;
54953;SDS011;40855;51.072;5.402;2023-03-01T09:40:21;18.48;;;11.25;;
54953;SDS011;40855;51.072;5.402;2023-03-01T09:45:49;24.45;;;14.07;;
54953;SDS011;40855;51.072;5.402;2023-03-01T09:48:20;19.67;;;12.70;;
54953;SDS011;40855;51.072;5.402;2023-03-01T09:50:48;24.83;;;13.43;;
54953;SDS011;40855;51.072;5.402;2023-03-01T09:53:16;21.52;;;13.10;;
54953;SDS011;40855;51.072;5.402;2023-03-01T10:01:30;21.02;;;11.40;;
54953;SDS011;40855;51.072;5.402;2023-03-01T10:04:03;19.40;;;11.43;;
54953;SDS011;40855;51.072;5.402;2023-03-01T10:06:44;20.10;;;11.55;;
54953;SDS011;40855;51.072;5.402;2023-03-01T10:09:21;20.67;;;11.48;;
54953;SDS011;40855;51.072;5.402;2023-03-01T10:11:52;26.08;;;12.30;;
54953;SDS011;40855;51.072;5.402;2023-03-01T10:14:36;17.73;;;11.40;;
54953;SDS011;40855;51.072;5.402;2023-03-01T10:17:26;19.55;;;12.13;;
54953;SDS011;40855;51.072;5.402;2023-03-01T10:19:56;25.25;;;11.98;;
54953;SDS011;40855;51.072;5.402;2023-03-01T10:22:44;17.98;;;11.35;;
54953;SDS011;40855;51.072;5.402;2023-03-01T10:25:20;21.30;;;12.13;;
54953;SDS011;40855;51.072;5.402;2023-03-01T10:28:10;18.10;;;11.75;;
54953;SDS011;40855;51.072;5.402;2023-03-01T10:30:53;18.08;;;11.50;;
54953;SDS011;40855;51.072;5.402;2023-03-01T10:35:50;16.80;;;11.55;;
54953;SDS011;40855;51.072;5.402;2023-03-01T10:38:16;22.45;;;12.05;;
54953;SDS011;40855;51.072;5.402;2023-03-01T10:43:22;20.05;;;12.48;;
54953;SDS011;40855;51.072;5.402;2023-03-01T10:45:50;19.58;;;11.38;;
54953;SDS011;40855;51.072;5.402;2023-03-01T10:48:34;17.77;;;11.88;;
54953;SDS011;40855;51.072;5.402;2023-03-01T10:53:27;23.70;;;11.90;;
54953;SDS011;40855;51.072;5.402;2023-03-01T10:56:07;19.67;;;12.13;;
54953;SDS011;40855;51.072;5.402;2023-03-01T10:58:35;19.83;;;11.73;;
54953;SDS011;40855;51.072;5.402;2023-03-01T11:01:04;20.10;;;11.52;;
54953;SDS011;40855;51.072;5.402;2023-03-01T11:03:42;18.02;;;10.77;;
54953;SDS011;40855;51.072;5.402;2023-03-01T11:11:04;21.73;;;11.98;;
54953;SDS011;40855;51.072;5.402;2023-03-01T11:13:37;19.85;;;10.98;;
54953;SDS011;40855;51.072;5.402;2023-03-01T11:21:44;19.63;;;11.15;;
54953;SDS011;40855;51.072;5.402;2023-03-01T11:24:23;21.13;;;11.82;;
54953;SDS011;40855;51.072;5.402;2023-03-01T11:27:18;21.88;;;12.25;;
54953;SDS011;40855;51.072;5.402;2023-03-01T11:29:50;25.38;;;11.63;;
54953;SDS011;40855;51.072;5.402;2023-03-01T11:32:43;16.50;;;10.82;;
54953;SDS011;40855;51.072;5.402;2023-03-01T11:35:30;17.65;;;11.23;;
54953;SDS011;40855;51.072;5.402;2023-03-01T11:48:47;27.70;;;12.15;;
54953;SDS011;40855;51.072;5.402;2023-03-01T12:03:21;19.83;;;11.25;;
54953;SDS011;40855;51.072;5.402;2023-03-01T12:08:45;17.67;;;10.73;;
54953;SDS011;40855;51.072;5.402;2023-03-01T12:22:39;20.67;;;10.68;;
54953;SDS011;40855;51.072;5.402;2023-03-01T12:31:04;17.15;;;10.45;;
54953;SDS011;40855;51.072;5.402;2023-03-01T12:50:42;15.13;;;9.88;;
54953;SDS011;40855;51.072;5.402;2023-03-01T12:53:21;16.45;;;10.32;;
54953;SDS011;40855;51.072;5.402;2023-03-01T12:55:53;16.02;;;10.35;;
54953;SDS011;40855;51.072;5.402;2023-03-01T13:23:00;18.02;;;11.48;;
54953;SDS011;40855;51.072;5.402;2023-03-01T13:25:27;19.15;;;10.68;;
54953;SDS011;40855;51.072;5.402;2023-03-01T13:27:54;17.60;;;10.50;;
54953;SDS011;40855;51.072;5.402;2023-03-01T13:30:58;17.42;;;9.07;;
54953;SDS011;40855;51.072;5.402;2023-03-01T13:35:56;19.05;;;10.77;;
54953;SDS011;40855;51.072;5.402;2023-03-01T13:41:11;28.30;;;12.15;;
54953;SDS011;40855;51.072;5.402;2023-03-01T13:43:40;18.73;;;10.00;;
54953;SDS011;40855;51.072;5.402;2023-03-01T13:46:09;20.55;;;10.60;;
54953;SDS011;40855;51.072;5.402;2023-03-01T13:48:40;14.73;;;10.73;;
54953;SDS011;40855;51.072;5.402;2023-03-01T13:51:10;19.02;;;10.75;;
54953;SDS011;40855;51.072;5.402;2023-03-01T13:53:39;16.60;;;10.05;;
54953;SDS011;40855;51.072;5.402;2023-03-01T13:56:09;17.38;;;9.93;;
54953;SDS011;40855;51.072;5.402;2023-03-01T13:58:49;16.95;;;9.40;;
54953;SDS011;40855;51.072;5.402;2023-03-01T14:01:27;32.78;;;15.77;;
54953;SDS011;40855;51.072;5.402;2023-03-01T14:03:54;18.92;;;9.43;;
54953;SDS011;40855;51.072;5.402;2023-03-01T14:06:22;14.40;;;9.98;;
54953;SDS011;40855;51.072;5.402;2023-03-01T14:09:01;15.65;;;8.73;;
54953;SDS011;40855;51.072;5.402;2023-03-01T14:19:24;13.23;;;8.57;;
54953;SDS011;40855;51.072;5.402;2023-03-01T14:24:38;12.73;;;9.00;;
54953;SDS011;40855;51.072;5.402;2023-03-01T14:27:11;11.50;;;7.95;;
54953;SDS011;40855;51.072;5.402;2023-03-01T14:29:38;16.30;;;8.60;;
54953;SDS011;40855;51.072;5.402;2023-03-01T14:32:12;12.10;;;8.23;;
54953;SDS011;40855;51.072;5.402;2023-03-01T14:34:45;19.42;;;10.75;;
54953;SDS011;40855;51.072;5.402;2023-03-01T14:40:00;14.90;;;8.23;;
54953;SDS011;40855;51.072;5.402;2023-03-01T14:42:28;59.88;;;22.88;;
54953;SDS011;40855;51.072;5.402;2023-03-01T14:44:58;21.52;;;11.35;;
54953;SDS011;40855;51.072;5.402;2023-03-01T14:47:34;13.15;;;8.32;;
54953;SDS011;40855;51.072;5.402;2023-03-01T14:50:08;18.83;;;9.85;;
54953;SDS011;40855;51.072;5.402;2023-03-01T14:52:35;29.58;;;12.70;;
54953;SDS011;40855;51.072;5.402;2023-03-01T14:55:09;17.60;;;8.63;;
54953;SDS011;40855;51.072;5.402;2023-03-01T14:57:52;15.40;;;8.23;;
54953;SDS011;40855;51.072;5.402;2023-03-01T15:00:20;15.70;;;8.85;;
54953;SDS011;40855;51.072;5.402;2023-03-01T15:02:51;14.90;;;7.47;;
54953;SDS011;40855;51.072;5.402;2023-03-01T15:05:22;13.88;;;8.57;;
54953;SDS011;40855;51.072;5.402;2023-03-01T15:07:59;11.27;;;7.30;;
54953;SDS011;40855;51.072;5.402;2023-03-01T15:10:31;11.57;;;7.18;;
54953;SDS011;40855;51.072;5.402;2023-03-01T15:13:21;10.68;;;7.50;;
54953;SDS011;40855;51.072;5.402;2023-03-01T15:15:48;12.18;;;7.05;;
54953;SDS011;40855;51.072;5.402;2023-03-01T15:18:26;11.15;;;7.72;;
54953;SDS011;40855;51.072;5.402;2023-03-01T15:20:54;10.32;;;6.20;;
54953;SDS011;40855;51.072;5.402;2023-03-01T15:23:24;9.55;;;6.63;;
54953;SDS011;40855;51.072;5.402;2023-03-01T15:25:53;9.32;;;7.05;;
54953;SDS011;40855;51.072;5.402;2023-03-01T15:28:29;10.75;;;7.80;;
54953;SDS011;40855;51.072;5.402;2023-03-01T15:31:00;10.05;;;7.43;;
54953;SDS011;40855;51.072;5.402;2023-03-01T15:36:03;12.52;;;7.40;;
54953;SDS011;40855;51.072;5.402;2023-03-01T15:38:53;16.73;;;7.38;;
54953;SDS011;40855;51.072;5.402;2023-03-01T15:41:25;13.80;;;7.45;;
54953;SDS011;40855;51.072;5.402;2023-03-01T15:46:53;13.45;;;7.18;;
54953;SDS011;40855;51.072;5.402;2023-03-01T15:49:38;8.98;;;6.75;;
54953;SDS011;40855;51.072;5.402;2023-03-01T15:52:13;11.90;;;7.85;;
54953;SDS011;40855;51.072;5.402;2023-03-01T15:54:58;9.15;;;6.63;;
54953;SDS011;40855;51.072;5.402;2023-03-01T15:57:25;11.63;;;6.53;;
54953;SDS011;40855;51.072;5.402;2023-03-01T15:59:51;10.27;;;6.40;;
54953;SDS011;40855;51.072;5.402;2023-03-01T16:02:17;8.52;;;5.95;;
54953;SDS011;40855;51.072;5.402;2023-03-01T16:04:45;11.98;;;6.45;;
54953;SDS011;40855;51.072;5.402;2023-03-01T16:07:12;13.98;;;6.57;;
54953;SDS011;40855;51.072;5.402;2023-03-01T16:30:59;8.93;;;6.18;;
54953;SDS011;40855;51.072;5.402;2023-03-01T16:33:26;8.80;;;6.32;;
54953;SDS011;40855;51.072;5.402;2023-03-01T16:35:52;11.77;;;6.75;;
54953;SDS011;40855;51.072;5.402;2023-03-01T16:38:18;10.02;;;6.57;;
54953;SDS011;40855;51.072;5.402;2023-03-01T16:40:48;9.10;;;6.47;;
54953;SDS011;40855;51.072;5.402;2023-03-01T16:43:15;13.57;;;8.00;;
54953;SDS011;40855;51.072;5.402;2023-03-01T16:45:41;17.95;;;7.85;;
54953;SDS011;40855;51.072;5.402;2023-03-01T16:48:09;15.63;;;6.70;;
54953;SDS011;40855;51.072;5.402;2023-03-01T16:50:35;12.00;;;7.10;;
54953;SDS011;40855;51.072;5.402;2023-03-01T16:53:01;11.60;;;7.05;;
54953;SDS011;40855;51.072;5.402;2023-03-01T16:55:27;14.10;;;7.30;;
54953;SDS011;40855;51.072;5.402;2023-03-01T16:57:53;13.48;;;8.02;;
54953;SDS011;40855;51.072;5.402;2023-03-01T17:00:19;12.57;;;8.95;;
54953;SDS011;40855;51.072;5.402;2023-03-01T17:02:45;13.90;;;7.80;;
54953;SDS011;40855;51.072;5.402;2023-03-01T17:05:12;10.45;;;7.10;;
54953;SDS011;40855;51.072;5.402;2023-03-01T17:07:38;12.02;;;8.00;;
54953;SDS011;40855;51.072;5.402;2023-03-01T17:10:05;12.48;;;7.25;;
54953;SDS011;40855;51.072;5.402;2023-03-01T17:12:33;11.95;;;7.55;;
54953;SDS011;40855;51.072;5.402;2023-03-01T17:14:59;12.60;;;8.25;;
54953;SDS011;40855;51.072;5.402;2023-03-01T17:17:25;12.70;;;8.07;;
54953;SDS011;40855;51.072;5.402;2023-03-01T17:19:51;14.60;;;7.28;;
54953;SDS011;40855;51.072;5.402;2023-03-01T17:22:18;26.58;;;11.20;;
54953;SDS011;40855;51.072;5.402;2023-03-01T17:24:44;42.50;;;13.75;;
54953;SDS011;40855;51.072;5.402;2023-03-01T17:27:10;25.55;;;10.98;;
54953;SDS011;40855;51.072;5.402;2023-03-01T17:29:37;48.30;;;19.60;;
54953;SDS011;40855;51.072;5.402;2023-03-01T17:32:03;24.15;;;15.30;;
54953;SDS011;40855;51.072;5.402;2023-03-01T17:34:30;16.48;;;10.30;;